VIAR/ATQ METAR and TAF weather

Enter ICAO airport designator
Station Type Date Time Source
VIAR METAR 2019/12/08 01:00 UTC NOAA

VIAR 080100Z 00000KT 2200 BR NSC 07/06 Q1020 NOSIG


Station Type Date Time Source
VIAR Decoded METAR 2019/12/08 01:00 UTC NOAA

Amritsar, India (VIAR) 31-38N 074-52E 234M
Dec 07, 2019 - 08:00 PM EST / 2019.12.08 0100 UTC
Wind: Calm:0
Visibility: 1 mile(s):0
Weather: mist
Temperature: 44 F (7 C)
Dew Point: 42 F (6 C)
Relative Humidity: 93%
Pressure (altimeter): 30.12 in. Hg (1020 hPa)
ob: VIAR 080100Z 00000KT 2200 BR NSC 07/06 Q1020 NOSIG
cycle: 1

Station Type Date Time Source
VIAR TAF 2019/12/08 00:24 UTC NOAA

TAF TAF VIAR 072300Z 0800/0906 00000KT 0300 FG
BECMG 0804/0806 0800 MIFG
BECMG 0807/0809 VRB02KT 2500 HZ
BECMG 0818/0820 00000KT 1500 BR
BECMG 0822/0824 0600 MIFG
BECMG 0901/0903 0200 FG
BECMG 0905/0906 VRB02KT 0600 MIFG

Example: see airport list